Time;durP1;ratioP1;P1;durP2;ratioP2;P2;SDS_P1;SDS_P2;PMS_P1;PMS_P2;Temp;Humidity;BMP_temperature;BMP_pressure;BME280_temperature;BME280_humidity;BME280_pressure;Samples;Min_cycle;Max_cycle;Signal;HPM_P1;HPM_P2
2021/10/09 00:01:43;;;;;;;34.95;18.60;;;;;;;3.97;70.23;102695.58;1776807;80;25822;-82
2021/10/09 00:04:10;;;;;;;33.35;18.42;;;;;;;3.96;70.30;102698.70;1735197;81;28119;-83
2021/10/09 00:06:37;;;;;;;34.50;18.45;;;;;;;3.92;70.41;102697.18;1718930;81;26013;-82
2021/10/09 00:09:04;;;;;;;31.40;18.25;;;;;;;3.91;70.68;102696.31;1701098;80;25928;-82
2021/10/09 00:11:37;;;;;;;35.60;18.55;;;;;;;3.91;70.60;102703.45;1759328;80;25837;-82
2021/10/09 00:14:07;;;;;;;30.70;17.75;;;;;;;3.88;70.54;102706.27;1739796;80;26004;-82
2021/10/09 00:16:35;;;;;;;33.40;17.23;;;;;;;3.83;70.70;102713.63;1733476;81;29674;-82
2021/10/09 00:19:04;;;;;;;30.77;16.45;;;;;;;3.75;70.74;102703.50;1715376;80;25923;-82
2021/10/09 00:21:31;;;;;;;33.50;17.40;;;;;;;3.72;70.76;102706.33;1763481;80;25660;-82
2021/10/09 00:24:00;;;;;;;34.75;17.20;;;;;;;3.71;70.99;102709.08;1735900;81;26505;-82
2021/10/09 00:26:28;;;;;;;29.32;17.48;;;;;;;3.68;71.02;102710.11;1699277;80;25324;-82
2021/10/09 00:28:55;;;;;;;39.95;18.12;;;;;;;3.67;71.37;102707.09;1739184;80;27540;-82
2021/10/09 00:31:22;;;;;;;36.23;19.23;;;;;;;3.64;71.65;102702.42;1768580;80;26435;-83
2021/10/09 00:33:51;;;;;;;35.80;17.50;;;;;;;3.60;71.75;102704.87;1712141;81;25766;-82
2021/10/09 00:36:18;;;;;;;38.17;18.35;;;;;;;3.60;71.83;102700.44;1715691;80;26479;-83
2021/10/09 00:38:45;;;;;;;33.20;18.20;;;;;;;3.62;71.75;102706.50;1712292;80;25654;-82
2021/10/09 00:41:12;;;;;;;35.50;18.80;;;;;;;3.65;72.00;102705.00;1758840;80;27568;-82
2021/10/09 00:43:39;;;;;;;37.38;17.48;;;;;;;3.66;71.81;102704.05;1761318;80;25781;-82
2021/10/09 00:46:07;;;;;;;41.40;18.95;;;;;;;3.64;72.05;102700.64;1737202;80;26171;-82
2021/10/09 00:48:35;;;;;;;35.98;18.57;;;;;;;3.63;72.04;102702.06;1693348;81;25885;-82
2021/10/09 00:51:05;;;;;;;33.75;18.27;;;;;;;3.59;72.19;102707.16;1745120;80;25898;-83
2021/10/09 00:53:34;;;;;;;39.25;18.25;;;;;;;3.57;72.25;102705.08;1764882;80;27547;-82
2021/10/09 00:56:01;;;;;;;34.58;18.57;;;;;;;3.56;72.39;102702.89;1734818;80;26011;-83
2021/10/09 00:58:29;;;;;;;31.27;17.73;;;;;;;3.53;72.35;102709.69;1715066;80;26555;-83
2021/10/09 01:00:57;;;;;;;35.90;19.20;;;;;;;3.50;72.28;102707.23;1778376;80;26637;-83
2021/10/09 01:03:24;;;;;;;37.15;19.55;;;;;;;3.49;72.53;102704.66;1754306;80;25857;-82
2021/10/09 01:05:51;;;;;;;41.20;20.10;;;;;;;3.44;72.64;102708.92;1713713;80;28266;-82
2021/10/09 01:08:18;;;;;;;42.67;19.12;;;;;;;3.44;72.79;102712.03;1712823;81;25861;-82
2021/10/09 01:10:46;;;;;;;40.00;19.48;;;;;;;3.39;72.78;102712.77;1747776;80;25828;-82
2021/10/09 01:13:13;;;;;;;38.15;19.87;;;;;;;3.36;73.14;102708.49;1739965;81;26595;-82
2021/10/09 01:15:40;;;;;;;41.18;20.00;;;;;;;3.34;73.04;102706.88;1691018;80;26587;-82
2021/10/09 01:18:14;;;;;;;39.15;19.27;;;;;;;3.30;73.39;102704.02;1717565;80;27405;-83
2021/10/09 01:20:58;;;;;;;36.23;19.02;;;;;;;3.27;73.42;102705.55;1759729;80;25914;-83
2021/10/09 01:23:27;;;;;;;35.13;19.70;;;;;;;3.23;73.77;102706.17;1738946;80;25804;-82
2021/10/09 01:25:56;;;;;;;39.55;19.55;;;;;;;3.20;73.54;102702.86;1698056;80;26047;-82
2021/10/09 01:28:23;;;;;;;38.40;19.48;;;;;;;3.19;73.59;102700.67;1727413;79;25362;-82
2021/10/09 01:30:55;;;;;;;35.40;20.37;;;;;;;3.19;73.50;102698.02;1761295;80;27549;-82
2021/10/09 01:33:24;;;;;;;37.80;20.30;;;;;;;3.17;73.62;102695.94;1742719;80;25806;-83
2021/10/09 01:35:55;;;;;;;42.03;20.23;;;;;;;3.14;73.71;102693.48;1706220;81;26033;-82
2021/10/09 01:38:27;;;;;;;37.88;20.08;;;;;;;3.11;73.77;102698.48;1702679;82;25850;-82
2021/10/09 01:40:55;;;;;;;;;;;;;;;3.08;73.67;102695.99;1753477;80;26729;-82
2021/10/09 01:43:25;;;;;;;42.25;19.52;;;;;;;3.07;73.96;102692.98;1732375;80;27566;-82
2021/10/09 01:45:53;;;;;;;37.48;20.88;;;;;;;3.06;73.96;102692.58;1739661;80;25787;-82
2021/10/09 01:48:36;;;;;;;38.02;19.90;;;;;;;3.08;73.90;102699.10;1713376;80;26540;-82
2021/10/09 01:51:06;;;;;;;38.63;20.43;;;;;;;3.06;74.02;102695.23;1752268;80;26479;-82
2021/10/09 01:53:35;;;;;;;42.20;20.60;;;;;;;3.04;73.82;102695.79;1718386;80;25845;-82
2021/10/09 01:56:03;;;;;;;33.92;19.05;;;;;;;3.02;74.06;102691.05;1722829;80;27662;-82
2021/10/09 01:58:30;;;;;;;43.83;20.50;;;;;;;3.00;74.02;102692.94;1681073;80;26032;-82
2021/10/09 02:00:57;;;;;;;45.23;21.15;;;;;;;3.00;74.28;102697.37;1746501;80;26424;-82
2021/10/09 02:03:24;;;;;;;38.83;19.35;;;;;;;2.98;74.37;102696.14;1708359;80;25802;-82
2021/10/09 02:05:51;;;;;;;39.50;20.68;;;;;;;2.97;74.44;102693.59;1679094;80;26001;-82
2021/10/09 02:08:19;;;;;;;46.50;20.80;;;;;;;2.96;74.38;102698.48;1751324;80;27537;-82
2021/10/09 02:10:59;;;;;;;34.95;19.07;;;;;;;2.92;74.50;102693.85;1746240;80;26511;-82
2021/10/09 02:13:39;;;;;;;39.25;19.25;;;;;;;2.92;74.59;102693.85;1720751;80;25255;-82
2021/10/09 02:16:11;;;;;;;42.48;20.72;;;;;;;2.90;74.54;102687.79;1684101;82;26499;-82
2021/10/09 02:26:29;;;;;;;40.00;19.73;;;;;;;2.91;74.51;102695.23;1696385;82;25831;-82
2021/10/09 02:28:57;;;;;;;34.88;18.70;;;;;;;2.87;74.52;102699.86;1755279;80;26647;-82
2021/10/09 02:31:24;;;;;;;39.30;19.67;;;;;;;2.85;74.67;102698.23;1741355;80;25809;-82
2021/10/09 02:33:53;;;;;;;34.00;19.17;;;;;;;2.83;74.67;102693.50;1734147;80;27614;-82
2021/10/09 02:36:21;;;;;;;38.92;20.40;;;;;;;2.85;74.82;102699.55;1690713;80;26697;-82
2021/10/09 02:38:48;;;;;;;38.90;19.92;;;;;;;2.84;74.77;102695.22;1752312;80;25985;-82
2021/10/09 02:41:17;;;;;;;42.83;20.12;;;;;;;2.82;74.80;102696.61;1747166;80;26466;-82
2021/10/09 02:43:44;;;;;;;43.95;20.52;;;;;;;2.82;75.04;102700.58;1755906;80;25309;-82
2021/10/09 02:46:11;;;;;;;39.70;19.25;;;;;;;2.80;75.02;102701.14;1722313;80;27532;-82
2021/10/09 02:48:40;;;;;;;36.85;19.82;;;;;;;2.82;75.02;102694.45;1747487;80;26577;-82
2021/10/09 02:51:07;;;;;;;36.20;18.92;;;;;;;2.82;74.96;102699.25;1751797;80;25315;-81
2021/10/09 02:53:34;;;;;;;35.73;19.80;;;;;;;2.77;74.93;102697.35;1722438;82;25797;-82
2021/10/09 02:56:02;;;;;;;36.58;18.87;;;;;;;2.76;75.02;102692.16;1686314;82;26056;-82
2021/10/09 02:58:30;;;;;;;36.53;20.45;;;;;;;2.74;75.29;102687.39;1750984;80;27457;-82
2021/10/09 03:00:58;;;;;;;38.90;20.27;;;;;;;2.69;75.04;102691.64;1750106;80;25814;-82
2021/10/09 03:03:25;;;;;;;38.70;20.25;;;;;;;2.67;75.15;102695.31;1726763;80;26291;-82
2021/10/09 03:05:52;;;;;;;36.50;18.67;;;;;;;2.65;75.45;102692.73;1661468;84;25800;-82
2021/10/09 03:08:19;;;;;;;38.02;20.43;;;;;;;2.62;75.50;102692.05;1718053;83;25823;-82
2021/10/09 03:10:46;;;;;;;30.60;17.82;;;;;;;2.60;75.53;102697.90;1744395;80;27569;-82
2021/10/09 03:13:14;;;;;;;37.42;18.98;;;;;;;2.57;75.71;102690.98;1728958;80;25826;-82
2021/10/09 03:15:42;;;;;;;35.23;18.90;;;;;;;2.55;75.62;102686.24;1668735;82;25860;-82
2021/10/09 03:18:10;;;;;;;40.15;19.57;;;;;;;2.58;75.77;102690.52;1756681;80;25911;-82
2021/10/09 03:20:37;;;;;;;36.38;18.30;;;;;;;2.55;75.83;102691.53;1752245;80;25324;-82
2021/10/09 03:23:06;;;;;;;35.88;18.85;;;;;;;2.55;75.95;102691.53;1722303;80;28072;-82
2021/10/09 03:25:33;;;;;;;36.40;18.90;;;;;;;2.55;75.99;102692.86;1680566;82;25940;-82
2021/10/09 03:28:00;;;;;;;37.05;18.45;;;;;;;2.55;76.00;102694.64;1743961;80;25320;-82
2021/10/09 03:30:27;;;;;;;34.70;20.52;;;;;;;2.55;76.11;102697.28;1749123;80;25874;-82
2021/10/09 03:32:54;;;;;;;35.65;19.92;;;;;;;2.54;75.98;102695.59;1735116;80;26537;-82
2021/10/09 03:35:21;;;;;;;39.70;19.05;;;;;;;2.54;76.06;102696.92;1676760;82;27578;-81
2021/10/09 03:37:50;;;;;;;32.33;18.02;;;;;;;2.54;76.13;102692.49;1752486;80;25784;-82
2021/10/09 03:40:20;;;;;;;35.70;19.55;;;;;;;2.52;76.13;102692.19;1748348;80;25846;-82
2021/10/09 03:45:30;;;;;;;40.50;20.33;;;;;;;2.48;76.29;102690.65;1726386;80;25992;-82
2021/10/09 03:48:03;;;;;;;36.65;17.95;;;;;;;2.48;76.66;102690.16;1745192;80;27606;-83
2021/10/09 03:53:04;;;;;;;;;;;;;;;2.48;76.49;102699.91;1691798;80;25417;-82
2021/10/09 03:55:32;;;;;;;33.65;17.48;;;;;;;2.50;76.54;102696.25;1736801;82;25983;-82
2021/10/09 03:57:59;;;;;;;38.15;19.12;;;;;;;2.47;76.46;102689.78;1748630;80;26149;-82
2021/10/09 04:00:28;;;;;;;31.45;17.52;;;;;;;2.46;76.50;102702.61;1721302;80;28285;-82
2021/10/09 04:02:56;;;;;;;36.95;19.50;;;;;;;2.47;76.42;102699.51;1692849;80;26059;-82
2021/10/09 04:05:23;;;;;;;39.33;18.35;;;;;;;2.49;76.53;102693.20;1714088;80;25373;-82
2021/10/09 04:07:52;;;;;;;37.48;19.73;;;;;;;2.50;76.48;102689.63;1753785;80;25957;-82
2021/10/09 04:10:21;;;;;;;36.88;19.42;;;;;;;2.51;76.28;102697.08;1722417;80;25881;-82
2021/10/09 04:12:49;;;;;;;36.03;20.57;;;;;;;2.52;76.29;102694.37;1692520;80;27502;-82
2021/10/09 04:15:16;;;;;;;35.03;19.23;;;;;;;2.52;76.34;102694.37;1713279;81;26566;-82
2021/10/09 04:17:43;;;;;;;34.65;19.15;;;;;;;2.53;76.20;102694.73;1747955;80;25816;-82
2021/10/09 04:20:12;;;;;;;37.15;19.32;;;;;;;2.52;75.87;102693.51;1761808;80;25926;-83
2021/10/09 04:22:39;;;;;;;34.78;20.08;;;;;;;2.50;75.79;102692.73;1747231;80;25733;-82
2021/10/09 04:25:07;;;;;;;29.98;18.75;;;;;;;2.49;75.62;102691.88;1688327;83;28129;-82
2021/10/09 04:27:35;;;;;;;34.60;20.08;;;;;;;2.48;75.69;102693.30;1739226;80;25495;-81
2021/10/09 04:30:05;;;;;;;34.25;18.00;;;;;;;2.45;75.93;102694.31;1713204;80;25889;-82
2021/10/09 04:32:33;;;;;;;35.78;18.10;;;;;;;2.42;75.90;102701.08;1723869;80;25861;-82
2021/10/09 04:35:01;;;;;;;34.60;18.95;;;;;;;2.40;76.02;102700.30;1694012;80;26289;-82
2021/10/09 04:37:28;;;;;;;35.85;17.17;;;;;;;2.38;75.94;102703.50;1731446;80;27466;-82
2021/10/09 04:39:55;;;;;;;39.33;18.87;;;;;;;2.35;76.16;102702.37;1725099;80;26201;-82
2021/10/09 04:42:23;;;;;;;31.85;17.67;;;;;;;2.29;76.15;102702.67;1698232;80;25786;-82
2021/10/09 04:44:50;;;;;;;34.13;17.40;;;;;;;2.25;76.28;102699.34;1717436;80;26535;-82
2021/10/09 04:47:17;;;;;;;38.53;20.23;;;;;;;2.23;76.38;102700.36;1746388;80;25790;-82
2021/10/09 04:49:44;;;;;;;36.80;18.90;;;;;;;2.22;76.35;102697.34;1712665;80;27633;-82
2021/10/09 04:52:11;;;;;;;27.30;16.17;;;;;;;2.23;76.59;102697.26;1699506;80;26780;-82
2021/10/09 04:54:39;;;;;;;36.65;17.85;;;;;;;2.20;76.64;102701.37;1692076;82;26473;-82
2021/10/09 04:57:06;;;;;;;35.15;17.57;;;;;;;2.15;76.73;102700.78;1752110;80;26293;-82
2021/10/09 04:59:34;;;;;;;32.28;17.02;;;;;;;2.13;76.96;102701.80;1748810;80;25812;-82
2021/10/09 05:02:01;;;;;;;32.10;17.92;;;;;;;2.12;77.02;102697.43;1658214;83;27695;-82
2021/10/09 05:04:28;;;;;;;32.65;17.35;;;;;;;2.10;77.08;102700.16;1712929;80;25883;-82
2021/10/09 05:06:56;;;;;;;29.23;16.67;;;;;;;2.07;77.08;102696.38;1692255;82;25933;-83
2021/10/09 05:09:23;;;;;;;31.57;16.87;;;;;;;2.05;77.11;102706.15;1722204;80;26569;-82
2021/10/09 05:11:50;;;;;;;32.00;18.23;;;;;;;2.02;77.30;102702.37;1717306;82;25854;-82
2021/10/09 05:14:17;;;;;;;32.53;16.93;;;;;;;2.00;77.28;102702.05;1693615;82;28356;-82
2021/10/09 05:16:45;;;;;;;29.60;18.37;;;;;;;2.00;77.35;102702.92;1743521;80;25836;-82
2021/10/09 05:19:12;;;;;;;29.80;18.20;;;;;;;2.02;77.30;102710.30;1686023;82;25930;-82
2021/10/09 05:21:40;;;;;;;33.40;16.97;;;;;;;2.06;77.43;102710.52;1692411;82;26823;-82
2021/10/09 05:24:07;;;;;;;34.90;18.37;;;;;;;2.09;77.49;102705.55;1688966;81;26568;-81
2021/10/09 05:26:37;;;;;;;33.48;18.25;;;;;;;2.08;77.48;102703.82;1712138;82;27394;-82
2021/10/09 05:29:04;;;;;;;29.63;17.98;;;;;;;2.08;77.65;102703.36;1737012;81;25346;-82
2021/10/09 05:31:35;;;;;;;30.52;17.45;;;;;;;2.07;77.74;102704.31;1687322;84;25908;-82
2021/10/09 05:34:02;;;;;;;30.15;16.40;;;;;;;2.08;77.85;102700.72;1735674;80;25944;-84
2021/10/09 05:36:31;;;;;;;28.02;15.95;;;;;;;2.09;77.93;102705.55;1718408;82;26650;-82
2021/10/09 05:39:00;;;;;;;28.60;16.97;;;;;;;2.10;77.94;102704.59;1722495;80;27587;-82
2021/10/09 05:41:27;;;;;;;33.35;17.07;;;;;;;2.10;77.94;102705.45;1712495;82;25752;-82
2021/10/09 05:44:03;;;;;;;31.77;16.40;;;;;;;2.13;78.05;102705.77;1754441;80;25790;-82
2021/10/09 05:46:33;;;;;;;29.20;17.17;;;;;;;2.14;78.15;102703.03;1742360;81;25730;-82
2021/10/09 05:49:03;;;;;;;33.15;18.35;;;;;;;2.15;78.21;102712.68;1702300;80;26049;-82
2021/10/09 05:51:34;;;;;;;30.60;16.48;;;;;;;2.18;78.38;102710.35;1710233;80;27602;-83
2021/10/09 05:54:21;;;;;;;29.10;15.35;;;;;;;2.18;78.45;102708.53;1721963;80;25942;-81
2021/10/09 05:57:06;;;;;;;29.05;16.15;;;;;;;2.22;78.53;102711.89;1725501;81;26014;-83
2021/10/09 06:00:06;;;;;;;27.30;15.72;;;;;;;2.24;78.67;102712.20;1724262;80;25915;-82
2021/10/09 06:32:31;;;;;;;34.25;17.20;;;;;;;3.06;79.56;102743.34;1752954;80;27580;-83
2021/10/09 06:37:56;;;;;;;28.07;14.10;;;;;;;3.19;79.36;102748.83;1728648;81;25984;-82
2021/10/09 06:43:10;;;;;;;32.30;15.55;;;;;;;3.32;79.55;102751.13;1721372;80;25870;-83
2021/10/09 06:45:45;;;;;;;30.05;15.35;;;;;;;3.38;79.50;102755.61;1691486;82;27107;-82
2021/10/09 07:01:23;;;;;;;24.85;14.68;;;;;;;3.88;79.45;102761.94;1769826;79;25888;-82
2021/10/09 07:03:50;;;;;;;28.07;15.63;;;;;;;3.98;79.18;102762.27;1712911;82;26136;-84
2021/10/09 07:06:18;;;;;;;28.65;15.50;;;;;;;4.07;79.10;102765.20;1691072;81;25874;-82
2021/10/09 07:08:50;;;;;;;27.80;14.68;;;;;;;4.17;79.13;102767.66;1736103;81;25861;-83
2021/10/09 07:11:21;;;;;;;24.55;14.50;;;;;;;4.27;78.94;102763.99;1695205;81;28091;-82
2021/10/09 07:13:48;;;;;;;23.40;14.55;;;;;;;4.38;78.89;102769.50;1715416;81;25863;-82
2021/10/09 07:16:16;;;;;;;28.23;14.95;;;;;;;4.48;78.89;102767.52;1723381;81;26635;-82
2021/10/09 07:18:43;;;;;;;25.25;14.63;;;;;;;4.59;78.71;102764.19;1740325;81;26400;-83
2021/10/09 07:21:10;;;;;;;30.48;15.05;;;;;;;4.70;78.58;102767.03;1706012;82;26604;-83
2021/10/09 07:23:38;;;;;;;26.85;14.83;;;;;;;4.82;78.65;102773.36;1683775;81;27577;-82
2021/10/09 07:26:07;;;;;;;30.08;16.87;;;;;;;4.89;78.22;102771.56;1692028;81;25915;-83
2021/10/09 07:28:34;;;;;;;24.12;14.63;;;;;;;4.99;77.98;102772.67;1749043;80;25942;-84
2021/10/09 07:31:01;;;;;;;25.70;14.53;;;;;;;5.11;77.96;102772.37;1674736;80;26385;-83
2021/10/09 07:33:28;;;;;;;24.15;14.83;;;;;;;5.22;77.81;102776.48;1692572;80;25929;-84
2021/10/09 07:35:55;;;;;;;25.52;14.07;;;;;;;5.34;77.91;102787.67;1700653;82;28377;-83
2021/10/09 07:38:22;;;;;;;20.55;13.53;;;;;;;5.44;77.52;102786.97;1734143;80;26620;-84
2021/10/09 07:40:49;;;;;;;25.95;14.65;;;;;;;5.54;76.75;102783.71;1679872;80;25932;-84
2021/10/09 07:43:16;;;;;;;23.77;13.85;;;;;;;5.65;77.07;102790.47;1703341;80;25903;-84
2021/10/09 07:45:43;;;;;;;24.02;13.58;;;;;;;5.75;76.87;102791.09;1762837;80;25987;-85
2021/10/09 07:48:10;;;;;;;21.23;13.18;;;;;;;5.85;76.72;102785.58;1749698;80;28350;-84
2021/10/09 07:50:38;;;;;;;23.65;13.45;;;;;;;5.98;76.68;102788.27;1686419;82;26594;-83
2021/10/09 07:53:05;;;;;;;25.48;13.70;;;;;;;6.09;75.95;102790.55;1685479;80;25889;-84
2021/10/09 07:55:32;;;;;;;22.13;12.63;;;;;;;6.18;75.43;102788.59;1716506;81;25918;-83
2021/10/09 07:57:58;;;;;;;26.68;14.05;;;;;;;6.29;75.52;102790.52;1768418;80;25937;-83
2021/10/09 08:00:27;;;;;;;25.17;14.13;;;;;;;6.40;75.74;102787.97;1702214;80;27516;-85
2021/10/09 08:02:54;;;;;;;29.87;14.78;;;;;;;6.54;75.23;102784.36;1690018;80;25953;-83
2021/10/09 08:05:24;;;;;;;21.62;13.30;;;;;;;6.63;74.68;102784.55;1725737;80;25974;-84
2021/10/09 08:07:50;;;;;;;21.62;13.65;;;;;;;6.76;74.77;102784.52;1784295;80;25788;-84
2021/10/09 08:10:17;;;;;;;25.48;13.98;;;;;;;6.87;74.08;102788.14;1705214;80;25797;-83
2021/10/09 08:12:44;;;;;;;25.17;13.48;;;;;;;6.96;73.80;102794.15;1714998;80;27652;-84
2021/10/09 08:15:11;;;;;;;22.00;12.75;;;;;;;7.10;74.28;102787.80;1727437;80;25819;-84
2021/10/09 08:17:38;;;;;;;20.90;12.47;;;;;;;7.23;73.87;102792.61;1756839;80;25880;-84
2021/10/09 08:20:08;;;;;;;18.55;10.78;;;;;;;7.35;73.22;102794.88;1695627;80;25898;-85
2021/10/09 08:22:39;;;;;;;19.70;11.65;;;;;;;7.44;72.78;102784.88;1685821;82;25748;-84
2021/10/09 08:25:52;;;;;;;20.25;11.70;;;;;;;7.55;72.53;102793.77;1726730;82;28103;-84
2021/10/09 08:37:21;;;;;;;16.30;9.28;;;;;;;8.05;71.11;102775.77;1711503;82;25932;-84
2021/10/09 08:39:36;;;;;;;15.75;8.98;;;;;;;8.20;70.58;102774.11;1718360;80;28454;-83
2021/10/09 08:42:04;;;;;;;14.35;8.95;;;;;;;8.33;70.38;102774.03;1716059;82;25937;-84
2021/10/09 08:44:31;;;;;;;13.40;8.93;;;;;;;8.44;69.91;102770.05;1709383;81;25990;-84
2021/10/09 08:46:58;;;;;;;17.12;10.80;;;;;;;8.55;68.36;102768.72;1684812;82;26324;-84
2021/10/09 08:49:25;;;;;;;14.00;8.45;;;;;;;8.66;68.98;102774.04;1706868;82;25842;-84
2021/10/09 08:51:53;;;;;;;16.77;9.70;;;;;;;8.76;68.75;102769.69;1734121;81;27521;-84
2021/10/09 08:54:21;;;;;;;11.90;8.50;;;;;;;8.86;68.62;102761.77;1724587;80;25916;-84
2021/10/09 08:56:48;;;;;;;12.15;7.30;;;;;;;8.96;68.34;102769.44;1666598;82;25398;-85
2021/10/09 08:59:24;;;;;;;14.15;7.65;;;;;;;9.08;67.62;102763.09;1681295;82;25867;-84
2021/10/09 09:02:16;;;;;;;14.47;8.58;;;;;;;9.21;67.82;102763.79;1731383;80;26646;-85
2021/10/09 09:04:54;;;;;;;10.60;7.00;;;;;;;9.36;66.34;102761.67;1709943;80;26948;-85
2021/10/09 09:38:54;;;;;;;12.13;6.25;;;;;;;10.68;60.58;102743.51;1739015;80;25842;-84
2021/10/09 09:40:16;;;;;;;14.55;7.03;;;;;;;10.77;60.44;102746.73;1681242;80;26491;-84
2021/10/09 09:42:52;;;;;;;10.60;6.92;;;;;;;10.88;60.95;102743.58;1729970;82;25897;-84
2021/10/09 09:45:25;;;;;;;9.98;6.30;;;;;;;10.97;60.77;102741.42;1734342;82;27551;-84
2021/10/09 09:47:59;;;;;;;15.43;7.67;;;;;;;11.06;59.06;102741.42;1736226;82;25808;-84
2021/10/09 09:50:28;;;;;;;14.75;7.35;;;;;;;11.15;58.44;102737.06;1697913;80;25882;-84
2021/10/09 09:52:55;;;;;;;13.38;7.55;;;;;;;11.24;58.26;102735.75;1658112;82;25949;-84
2021/10/09 09:55:22;;;;;;;23.65;7.33;;;;;;;11.34;58.26;102730.38;1730959;81;25853;-84
2021/10/09 09:57:52;;;;;;;19.57;8.28;;;;;;;11.42;57.90;102734.06;1734204;80;27459;-84
2021/10/09 10:00:21;;;;;;;14.65;7.45;;;;;;;11.50;57.31;102731.52;1684405;80;26359;-83
2021/10/09 10:02:55;;;;;;;13.20;8.15;;;;;;;11.55;57.54;102732.44;1693212;80;26518;-84
2021/10/09 10:05:27;;;;;;;10.35;6.85;;;;;;;11.57;56.96;102732.66;1726170;80;25859;-84
2021/10/09 10:07:53;;;;;;;16.12;8.80;;;;;;;11.62;57.05;102729.55;1740224;80;25334;-84
2021/10/09 10:10:20;;;;;;;15.98;8.88;;;;;;;11.68;57.23;102721.44;1739425;80;27511;-84
2021/10/09 10:12:55;;;;;;;11.70;7.85;;;;;;;11.74;55.04;102720.38;1704120;82;26065;-84
2021/10/09 10:15:28;;;;;;;10.35;7.15;;;;;;;11.79;54.75;102721.30;1704082;82;25851;-84
2021/10/09 10:17:56;;;;;;;15.60;8.65;;;;;;;11.84;55.28;102718.55;1756166;80;25791;-83
2021/10/09 10:20:44;;;;;;;12.60;7.58;;;;;;;11.92;54.49;102710.62;1724760;82;26110;-84
2021/10/09 10:23:11;;;;;;;12.88;7.42;;;;;;;11.99;53.42;102715.77;1729076;81;27448;-84
2021/10/09 10:25:39;;;;;;;13.93;7.50;;;;;;;12.06;52.75;102707.98;1725304;82;25793;-84
2021/10/09 10:28:17;;;;;;;9.65;6.28;;;;;;;12.11;52.96;102709.23;1769132;80;26231;-84
2021/10/09 10:30:46;;;;;;;9.10;6.60;;;;;;;12.15;51.63;102701.71;1695089;82;26580;-84
2021/10/09 10:33:19;;;;;;;9.43;6.62;;;;;;;12.21;52.57;102703.32;1714212;80;25385;-84
2021/10/09 10:35:47;;;;;;;8.33;6.15;;;;;;;12.26;52.38;102702.40;1716196;82;28409;-85
2021/10/09 10:38:32;;;;;;;11.88;6.70;;;;;;;12.32;52.23;102700.95;1755026;80;25855;-85
2021/10/09 10:41:00;;;;;;;11.20;6.83;;;;;;;12.34;51.91;102698.95;1695440;80;26066;-84
2021/10/09 10:43:48;;;;;;;9.98;6.40;;;;;;;12.41;52.76;102700.07;1683843;82;25812;-84
2021/10/09 10:46:38;;;;;;;13.38;7.03;;;;;;;12.46;52.33;102697.80;1739053;80;25843;-82
2021/10/09 10:51:50;;;;;;;9.15;6.53;;;;;;;12.52;51.74;102694.52;1707581;80;26015;-84
2021/10/09 10:57:08;;;;;;;11.80;7.03;;;;;;;12.58;51.40;102692.56;1758373;80;25925;-85
2021/10/09 10:59:55;;;;;;;10.95;6.10;;;;;;;12.61;51.26;102695.46;1744123;80;26278;-84
2021/10/09 11:02:24;;;;;;;9.68;6.67;;;;;;;12.62;50.98;102695.30;1704659;81;29169;-84
2021/10/09 11:04:56;;;;;;;9.80;6.53;;;;;;;12.64;51.17;102691.97;1725620;81;26032;-85
2021/10/09 11:07:35;;;;;;;12.20;7.17;;;;;;;12.67;50.17;102691.68;1711774;82;25500;-83
2021/10/09 11:10:06;;;;;;;13.80;7.45;;;;;;;12.68;50.38;102692.02;1734258;82;25759;-84
2021/10/09 11:12:36;;;;;;;11.33;7.33;;;;;;;12.73;50.58;102683.01;1668717;80;26074;-84
2021/10/09 11:15:22;;;;;;;14.38;6.78;;;;;;;12.81;51.03;102689.00;1707553;82;28253;-84
2021/10/09 11:18:04;;;;;;;11.68;7.85;;;;;;;12.86;50.88;102688.02;1749516;80;26078;-85
2021/10/09 11:20:38;;;;;;;15.48;7.78;;;;;;;12.91;49.57;102686.59;1712118;82;25378;-84
2021/10/09 11:23:12;;;;;;;10.03;6.95;;;;;;;12.98;49.59;102683.63;1711914;80;25868;-84
2021/10/09 11:25:45;;;;;;;16.50;7.65;;;;;;;13.00;50.15;102674.08;1714005;80;25844;-84
2021/10/09 11:28:25;;;;;;;11.33;6.62;;;;;;;13.03;49.91;102669.23;1733532;82;27560;-84
2021/10/09 11:30:52;;;;;;;10.40;7.03;;;;;;;13.10;49.71;102668.16;1727609;82;25955;-84
2021/10/09 11:33:24;;;;;;;9.75;6.17;;;;;;;13.17;50.34;102665.70;1680991;82;26010;-84
2021/10/09 11:35:51;;;;;;;7.97;6.65;;;;;;;13.21;49.84;102663.89;1714514;82;25831;-84
2021/10/09 11:38:29;;;;;;;8.73;6.53;;;;;;;13.22;49.73;102666.06;1708753;82;25472;-84
2021/10/09 11:41:02;;;;;;;10.90;5.85;;;;;;;13.22;48.73;102659.33;1707022;83;27527;-85
2021/10/09 11:43:50;;;;;;;12.53;6.40;;;;;;;13.23;49.90;102655.16;1668772;82;25484;-85
2021/10/09 11:55:20;;;;;;;8.30;5.30;;;;;;;13.44;47.67;102644.92;1723401;80;27488;-85
2021/10/09 11:57:50;;;;;;;11.53;5.55;;;;;;;13.48;48.04;102652.17;1683380;82;25999;-84
2021/10/09 12:00:37;;;;;;;9.73;5.90;;;;;;;13.51;48.42;102643.30;1760657;80;25358;-85
2021/10/09 12:03:35;;;;;;;19.65;9.45;;;;;;;13.55;48.24;102641.13;1731626;80;25846;-84
2021/10/09 12:06:10;;;;;;;8.30;6.08;;;;;;;13.57;48.70;102639.13;1731030;81;25329;-84
2021/10/09 12:08:53;;;;;;;10.30;6.65;;;;;;;13.59;47.82;102639.31;1758981;80;27588;-85
2021/10/09 12:11:29;;;;;;;10.60;6.10;;;;;;;13.58;48.34;102626.84;1740915;81;25878;-85
2021/10/09 12:14:12;;;;;;;6.22;5.58;;;;;;;13.62;48.19;102635.47;1729050;82;25846;-84
2021/10/09 12:16:47;;;;;;;7.70;5.28;;;;;;;13.63;46.59;102634.45;1729093;80;25860;-84
2021/10/09 12:19:29;;;;;;;9.88;6.20;;;;;;;13.62;46.63;102635.47;1698478;83;25354;-84
2021/10/09 12:22:04;;;;;;;8.85;6.15;;;;;;;13.62;47.09;102634.95;1746188;80;27448;-85
2021/10/09 12:24:47;;;;;;;8.48;5.53;;;;;;;13.62;46.99;102630.09;1759999;80;25359;-84
2021/10/09 12:27:26;;;;;;;8.88;6.03;;;;;;;13.66;47.89;102628.77;1678960;82;25846;-84
2021/10/09 12:30:08;;;;;;;8.93;5.80;;;;;;;13.69;46.11;102627.94;1682771;82;25817;-85
2021/10/09 12:32:48;;;;;;;9.55;6.20;;;;;;;13.70;46.98;102617.52;1741367;81;25784;-85
2021/10/09 12:35:22;;;;;;;11.48;5.87;;;;;;;13.76;47.88;102618.23;1739616;80;27715;-84
2021/10/09 12:38:00;;;;;;;9.23;5.42;;;;;;;13.80;46.53;102616.05;1691046;82;25346;-85
2021/10/09 12:40:37;;;;;;;11.28;7.17;;;;;;;13.81;46.97;102613.72;1729772;81;25744;-85
2021/10/09 12:43:07;;;;;;;10.32;6.80;;;;;;;13.82;46.79;102606.81;1723175;82;26405;-85
2021/10/09 12:45:34;;;;;;;7.72;5.95;;;;;;;13.86;46.56;102603.29;1745116;80;25885;-84
2021/10/09 12:48:01;;;;;;;8.78;5.85;;;;;;;13.88;46.70;102605.32;1708415;80;27431;-85
2021/10/09 12:50:38;;;;;;;10.72;5.85;;;;;;;13.88;44.91;102599.44;1697299;80;25873;-85
2021/10/09 12:53:05;;;;;;;9.75;6.08;;;;;;;13.89;46.10;102602.98;1768789;80;25769;-85
2021/10/09 12:55:35;;;;;;;9.25;5.65;;;;;;;13.86;45.15;102598.75;1747968;80;25958;-84
2021/10/09 12:58:07;;;;;;;8.60;5.22;;;;;;;13.84;45.35;102603.45;1672277;82;26462;-85
2021/10/09 13:00:35;;;;;;;6.67;5.20;;;;;;;13.86;46.24;102605.48;1714972;82;27078;-85
2021/10/09 13:03:02;;;;;;;8.58;5.65;;;;;;;13.88;45.70;102605.32;1692216;80;25830;-85
2021/10/09 13:05:31;;;;;;;9.90;5.78;;;;;;;13.92;46.22;102597.29;1735291;80;25334;-85
2021/10/09 13:08:00;;;;;;;14.55;9.10;;;;;;;13.96;46.24;102601.34;1750167;80;25835;-85
2021/10/09 13:10:31;;;;;;;17.17;8.88;;;;;;;14.00;46.14;102592.43;1751415;80;25396;-85
2021/10/09 13:12:57;;;;;;;14.98;6.75;;;;;;;14.01;46.01;102580.13;1724222;80;27497;-86
2021/10/09 13:15:24;;;;;;;12.20;6.53;;;;;;;14.08;45.98;102590.62;1735754;81;25747;-85
2021/10/09 13:17:51;;;;;;;13.58;7.10;;;;;;;14.13;45.19;102578.02;1752834;80;25772;-85
2021/10/09 13:20:19;;;;;;;11.55;7.37;;;;;;;14.15;45.44;102579.55;1743753;80;25859;-85
2021/10/09 13:22:47;;;;;;;8.38;5.83;;;;;;;14.17;45.36;102578.03;1725815;82;25969;-86
2021/10/09 13:25:14;;;;;;;8.85;5.83;;;;;;;14.15;45.23;102575.50;1720236;80;27409;-86
2021/10/09 13:27:41;;;;;;;10.85;6.22;;;;;;;14.14;45.63;102576.98;1738537;82;25919;-86
2021/10/09 13:30:09;;;;;;;9.25;5.65;;;;;;;14.14;45.76;102570.25;1735354;81;25974;-86